createdAt,value
2022-10-26T00:01:10.436Z,14.70
2022-10-26T00:03:39.214Z,14.70
2022-10-26T00:06:12.555Z,14.70
2022-10-26T00:08:40.287Z,14.70
2022-10-26T00:11:08.509Z,14.70
2022-10-26T00:13:36.163Z,14.80
2022-10-26T00:16:16.381Z,14.80
2022-10-26T00:18:44.797Z,14.80
2022-10-26T00:21:12.704Z,14.80
2022-10-26T00:23:40.928Z,14.80
2022-10-26T00:26:08.491Z,14.80
2022-10-26T00:28:36.410Z,14.80
2022-10-26T00:31:09.326Z,14.80
2022-10-26T00:33:36.831Z,14.80
2022-10-26T00:36:04.720Z,14.90
2022-10-26T00:38:32.178Z,14.80
2022-10-26T00:40:59.704Z,14.90
2022-10-26T00:43:27.232Z,14.90
2022-10-26T00:45:57.213Z,14.90
2022-10-26T00:48:31.535Z,14.90
2022-10-26T00:51:02.854Z,14.90
2022-10-26T00:53:31.747Z,14.90
2022-10-26T00:55:59.775Z,14.90
2022-10-26T00:58:27.604Z,14.90
2022-10-26T01:00:55.578Z,14.90
2022-10-26T01:03:25.311Z,14.80
2022-10-26T01:05:56.403Z,14.80
2022-10-26T01:08:25.344Z,14.80
2022-10-26T01:10:52.891Z,14.80
2022-10-26T01:13:21.120Z,14.80
2022-10-26T01:15:51.930Z,14.80
2022-10-26T01:18:43.108Z,14.80
2022-10-26T01:21:22.088Z,14.80
2022-10-26T01:24:08.281Z,14.80
2022-10-26T01:27:02.049Z,14.90
2022-10-26T01:29:55.918Z,15.00
2022-10-26T01:32:36.004Z,14.90
2022-10-26T01:35:16.262Z,14.90
2022-10-26T01:37:54.934Z,14.90
2022-10-26T01:40:36.419Z,14.90
2022-10-26T01:43:08.191Z,14.90
2022-10-26T01:45:40.063Z,14.80
2022-10-26T01:48:12.671Z,14.80
2022-10-26T01:50:41.993Z,14.80
2022-10-26T01:53:13.584Z,14.60
2022-10-26T01:55:49.051Z,14.70
2022-10-26T01:58:38.204Z,14.70
2022-10-26T02:01:33.212Z,14.70
2022-10-26T02:04:15.718Z,14.70
2022-10-26T02:07:04.380Z,14.70
2022-10-26T02:09:43.708Z,14.60
2022-10-26T02:12:26.943Z,14.60
2022-10-26T02:15:05.253Z,14.50
2022-10-26T02:18:00.202Z,14.60
2022-10-26T02:20:34.006Z,14.50
2022-10-26T02:23:05.423Z,14.60
2022-10-26T02:25:36.887Z,14.60
2022-10-26T02:28:12.357Z,14.60
2022-10-26T02:30:42.717Z,14.70
2022-10-26T02:33:12.174Z,14.70
2022-10-26T02:35:41.840Z,14.60
2022-10-26T02:38:12.121Z,14.70
2022-10-26T02:40:40.348Z,14.70
2022-10-26T02:43:09.886Z,14.70
2022-10-26T02:45:50.234Z,14.70
2022-10-26T02:48:18.692Z,14.60
2022-10-26T02:51:04.774Z,14.60
2022-10-26T02:53:48.208Z,14.50
2022-10-26T02:56:22.556Z,14.50
2022-10-26T02:58:55.739Z,14.40
2022-10-26T03:01:23.418Z,14.40
2022-10-26T03:03:50.970Z,14.30
2022-10-26T03:06:23.232Z,14.30
2022-10-26T03:08:50.880Z,14.20
2022-10-26T03:11:18.590Z,14.30
2022-10-26T03:13:46.119Z,14.30
2022-10-26T03:16:13.527Z,14.20
2022-10-26T03:18:40.959Z,14.20
2022-10-26T03:21:08.697Z,14.20
2022-10-26T03:23:36.253Z,14.20
2022-10-26T03:26:03.776Z,14.20
2022-10-26T03:28:31.862Z,14.30
2022-10-26T03:30:59.192Z,14.30
2022-10-26T03:33:27.301Z,14.30
2022-10-26T03:35:56.762Z,14.30
2022-10-26T03:38:24.600Z,14.20
2022-10-26T03:40:52.289Z,14.30
2022-10-26T03:43:19.814Z,14.30
2022-10-26T03:45:47.260Z,14.30
2022-10-26T03:48:14.794Z,14.30
2022-10-26T03:50:42.241Z,14.30
2022-10-26T03:53:09.890Z,14.30
2022-10-26T03:55:37.406Z,14.30
2022-10-26T03:58:04.958Z,14.30
2022-10-26T04:00:32.365Z,14.30
2022-10-26T04:03:00.405Z,14.30
2022-10-26T04:05:28.860Z,14.30
2022-10-26T04:07:58.554Z,14.40
2022-10-26T04:10:27.387Z,14.50
2022-10-26T04:12:55.483Z,14.60
2022-10-26T04:15:23.500Z,14.70
2022-10-26T04:17:59.036Z,14.80
2022-10-26T04:20:27.708Z,14.90
2022-10-26T04:23:03.236Z,15.00
2022-10-26T04:25:33.264Z,15.10
2022-10-26T04:28:02.710Z,15.20
2022-10-26T04:30:31.109Z,15.20
2022-10-26T04:32:58.574Z,15.30
2022-10-26T04:35:26.931Z,15.40
2022-10-26T04:38:01.123Z,15.40
2022-10-26T04:40:29.660Z,15.40
2022-10-26T04:42:57.234Z,15.40
2022-10-26T04:45:24.827Z,15.50
2022-10-26T04:48:01.756Z,15.50
2022-10-26T04:50:29.283Z,15.60
2022-10-26T04:52:56.863Z,15.60
2022-10-26T04:55:24.250Z,15.60
2022-10-26T04:57:54.775Z,15.70
2022-10-26T05:00:24.587Z,15.70
2022-10-26T05:02:52.068Z,15.70
2022-10-26T05:05:19.495Z,15.80
2022-10-26T05:07:55.788Z,15.80
2022-10-26T05:10:24.155Z,15.80
2022-10-26T05:12:56.345Z,15.80
2022-10-26T05:15:23.765Z,15.80
2022-10-26T05:18:05.602Z,15.70
2022-10-26T05:20:34.750Z,15.60
2022-10-26T05:23:04.621Z,15.50
2022-10-26T05:25:34.564Z,15.40
2022-10-26T05:28:04.239Z,15.20
2022-10-26T05:30:32.249Z,15.10
2022-10-26T05:33:02.137Z,15.00
2022-10-26T05:35:30.437Z,15.00
2022-10-26T05:37:58.535Z,14.90
2022-10-26T05:40:26.213Z,14.90
2022-10-26T05:42:59.223Z,14.90
2022-10-26T05:45:26.651Z,14.90
2022-10-26T05:47:57.410Z,14.80
2022-10-26T05:50:27.550Z,14.80
2022-10-26T05:52:55.814Z,14.80
2022-10-26T05:55:23.505Z,14.80
2022-10-26T05:57:51.558Z,14.80
2022-10-26T06:00:24.564Z,14.80
2022-10-26T06:03:22.449Z,14.80
2022-10-26T06:05:53.371Z,14.80
2022-10-26T06:08:23.078Z,14.80
2022-10-26T06:10:51.135Z,14.90
2022-10-26T06:13:18.855Z,14.90
2022-10-26T06:16:08.097Z,15.00
2022-10-26T06:19:02.135Z,15.00
2022-10-26T06:21:49.980Z,15.00
2022-10-26T06:24:39.002Z,15.00
2022-10-26T06:27:15.689Z,14.90
2022-10-26T06:30:02.209Z,14.80
2022-10-26T06:32:30.382Z,14.80
2022-10-26T06:35:16.398Z,14.90
2022-10-26T06:37:46.467Z,14.80
2022-10-26T06:40:15.977Z,14.80
2022-10-26T06:42:44.168Z,14.80
2022-10-26T06:48:10.845Z,14.70
2022-10-26T06:50:46.127Z,14.70
2022-10-26T06:53:17.119Z,14.80
2022-10-26T06:55:46.700Z,14.70
2022-10-26T06:58:29.151Z,14.80
2022-10-26T07:00:56.998Z,14.80
2022-10-26T07:03:24.541Z,14.90
2022-10-26T07:05:52.216Z,15.00
2022-10-26T07:08:19.705Z,15.00
2022-10-26T07:10:47.322Z,15.10
2022-10-26T07:13:14.990Z,15.00
2022-10-26T07:15:43.407Z,15.10
2022-10-26T07:18:10.986Z,15.00
2022-10-26T07:20:40.792Z,15.00
2022-10-26T07:23:12.708Z,15.00
2022-10-26T07:25:40.638Z,15.00
2022-10-26T07:28:10.216Z,15.00
2022-10-26T07:30:39.380Z,15.00
2022-10-26T07:33:12.672Z,15.00
2022-10-26T07:35:40.100Z,14.90
2022-10-26T07:38:08.188Z,14.90
2022-10-26T07:40:36.922Z,14.90
2022-10-26T07:43:04.908Z,14.90
2022-10-26T07:45:32.450Z,15.00
2022-10-26T07:47:59.833Z,15.00
2022-10-26T07:50:27.333Z,15.10
2022-10-26T07:52:55.046Z,15.20
2022-10-26T07:55:22.547Z,15.30
2022-10-26T07:57:54.465Z,15.40
2022-10-26T08:00:22.522Z,15.40
2022-10-26T08:02:50.169Z,15.40
2022-10-26T08:05:18.056Z,15.50
2022-10-26T08:07:46.585Z,15.50
2022-10-26T08:10:15.170Z,15.60
2022-10-26T08:12:43.829Z,15.70
2022-10-26T08:15:12.842Z,15.80
2022-10-26T08:17:40.237Z,15.80
2022-10-26T08:20:08.130Z,15.80
2022-10-26T08:22:35.969Z,15.90
2022-10-26T08:25:03.513Z,16.00
2022-10-26T08:27:30.927Z,16.10
2022-10-26T08:29:58.452Z,16.10
2022-10-26T08:32:26.039Z,16.20
2022-10-26T08:34:53.492Z,16.40
2022-10-26T08:37:21.015Z,16.40
2022-10-26T08:39:50.615Z,16.50
2022-10-26T08:42:28.658Z,16.50
2022-10-26T08:45:27.581Z,16.60
2022-10-26T08:48:01.660Z,16.40
2022-10-26T08:50:45.691Z,16.60
2022-10-26T08:53:31.364Z,16.60
2022-10-26T08:56:12.382Z,16.50
2022-10-26T08:58:51.464Z,16.40
2022-10-26T09:01:19.501Z,16.30
2022-10-26T09:03:46.994Z,16.30
2022-10-26T09:06:43.916Z,16.30
2022-10-26T09:09:36.583Z,16.30
2022-10-26T09:12:31.215Z,16.40
2022-10-26T09:15:14.110Z,16.50
2022-10-26T09:17:55.951Z,16.60
2022-10-26T09:20:48.470Z,16.70
2022-10-26T09:23:55.501Z,16.80
2022-10-26T09:26:56.014Z,16.90
2022-10-26T09:29:34.606Z,17.00
2022-10-26T09:32:03.870Z,17.00
2022-10-26T09:34:46.464Z,17.00
2022-10-26T09:37:25.521Z,17.00
2022-10-26T09:39:56.009Z,17.10
2022-10-26T09:42:37.525Z,17.20
2022-10-26T09:45:31.575Z,17.20
2022-10-26T09:48:07.471Z,17.30
2022-10-26T09:50:38.556Z,17.30
2022-10-26T09:53:06.039Z,17.30
2022-10-26T09:55:39.269Z,17.40
2022-10-26T09:58:14.576Z,17.30
2022-10-26T10:00:42.916Z,17.40
2022-10-26T10:03:31.574Z,17.40
2022-10-26T10:06:19.819Z,17.50
2022-10-26T10:09:06.701Z,17.50
2022-10-26T10:11:41.005Z,17.50
2022-10-26T10:14:14.888Z,17.50
2022-10-26T10:16:51.343Z,17.60
2022-10-26T10:19:38.693Z,17.60
2022-10-26T10:22:18.700Z,17.70
2022-10-26T10:24:58.299Z,17.70
2022-10-26T10:27:27.000Z,17.70
2022-10-26T10:30:03.225Z,17.70
2022-10-26T10:32:35.715Z,17.70
2022-10-26T10:35:24.090Z,17.60
2022-10-26T10:37:52.387Z,17.60
2022-10-26T10:40:21.309Z,17.60
2022-10-26T10:42:50.647Z,17.60
2022-10-26T10:45:30.218Z,17.60
2022-10-26T10:48:15.112Z,17.60
2022-10-26T10:50:58.550Z,17.60
2022-10-26T10:53:54.125Z,17.60
2022-10-26T10:56:30.484Z,17.80
2022-10-26T10:59:16.795Z,17.90
2022-10-26T11:02:26.395Z,18.00
2022-10-26T11:05:31.405Z,18.10
2022-10-26T11:08:20.455Z,18.10
2022-10-26T11:11:13.690Z,18.20
2022-10-26T11:14:18.983Z,17.80
2022-10-26T11:17:02.914Z,18.20
2022-10-26T11:19:51.874Z,18.30
2022-10-26T11:22:24.456Z,18.40
2022-10-26T11:25:16.503Z,18.50
2022-10-26T11:27:56.011Z,18.50
2022-10-26T11:30:30.581Z,18.50
2022-10-26T11:33:27.092Z,18.60
2022-10-26T11:36:08.872Z,18.50
2022-10-26T11:39:16.273Z,18.50
2022-10-26T11:42:03.447Z,18.50
2022-10-26T11:44:41.291Z,18.50
2022-10-26T11:47:11.415Z,18.40
2022-10-26T11:49:51.757Z,18.40
2022-10-26T11:52:24.921Z,18.40
2022-10-26T11:54:56.929Z,18.40
2022-10-26T11:57:28.031Z,18.30
2022-10-26T12:00:12.680Z,18.30
2022-10-26T12:02:47.013Z,18.30
2022-10-26T12:05:27.913Z,18.30
2022-10-26T12:07:59.092Z,18.40
2022-10-26T12:10:35.201Z,18.40
2022-10-26T12:13:05.698Z,18.50
2022-10-26T12:19:01.034Z,18.50
2022-10-26T12:21:30.357Z,18.50
2022-10-26T12:24:22.766Z,18.50
2022-10-26T12:26:54.685Z,18.50
2022-10-26T12:29:37.440Z,18.50
2022-10-26T12:32:25.835Z,18.50
2022-10-26T12:34:54.868Z,18.50
2022-10-26T12:37:38.203Z,18.50
2022-10-26T12:40:30.792Z,18.60
2022-10-26T12:43:18.493Z,18.60
2022-10-26T12:46:06.190Z,18.60
2022-10-26T12:48:43.795Z,18.60
2022-10-26T12:51:26.944Z,18.60
2022-10-26T12:53:57.462Z,18.60
2022-10-26T12:56:38.864Z,18.60
2022-10-26T12:59:18.945Z,18.50
2022-10-26T13:02:04.040Z,18.50
2022-10-26T13:05:06.008Z,18.40
2022-10-26T13:07:38.861Z,18.40
2022-10-26T13:10:12.297Z,18.30
2022-10-26T13:12:42.843Z,18.20
2022-10-26T13:15:21.639Z,18.20
2022-10-26T13:18:10.727Z,18.20
2022-10-26T13:21:12.875Z,18.10
2022-10-26T13:23:43.451Z,18.10
2022-10-26T13:26:16.021Z,18.20
2022-10-26T13:28:45.162Z,18.20
2022-10-26T13:31:34.349Z,18.30
2022-10-26T13:34:16.857Z,18.40
2022-10-26T13:36:50.303Z,18.40
2022-10-26T13:39:22.316Z,18.40
2022-10-26T13:41:52.694Z,18.40
2022-10-26T13:44:37.644Z,18.40
2022-10-26T13:47:45.969Z,18.40
2022-10-26T13:50:20.274Z,18.40
2022-10-26T13:52:55.339Z,18.30
2022-10-26T13:55:50.469Z,18.10
2022-10-26T13:58:23.739Z,18.10
2022-10-26T14:01:10.365Z,18.00
2022-10-26T14:03:38.556Z,18.00
2022-10-26T14:06:19.474Z,18.10
2022-10-26T14:08:50.026Z,18.10
2022-10-26T14:11:22.098Z,18.20
2022-10-26T14:13:51.168Z,18.20
2022-10-26T14:16:20.399Z,18.30
2022-10-26T14:18:49.492Z,18.40
2022-10-26T14:21:20.345Z,18.40
2022-10-26T14:23:59.423Z,18.40
2022-10-26T14:26:38.321Z,18.40
2022-10-26T14:29:16.383Z,18.40
2022-10-26T14:31:43.757Z,18.50
2022-10-26T14:34:12.702Z,18.50
2022-10-26T14:37:02.357Z,18.50
2022-10-26T14:39:32.851Z,18.40
2022-10-26T14:42:13.684Z,18.40
2022-10-26T14:44:41.273Z,18.30
2022-10-26T14:47:26.021Z,18.30
2022-10-26T14:49:53.874Z,18.20
2022-10-26T14:52:34.110Z,18.10
2022-10-26T14:55:10.491Z,18.10
2022-10-26T14:57:39.837Z,18.00
2022-10-26T15:00:36.958Z,18.00
2022-10-26T15:03:09.510Z,17.90
2022-10-26T15:05:37.016Z,17.80
2022-10-26T15:08:04.543Z,17.80
2022-10-26T15:10:37.727Z,17.70
2022-10-26T15:13:31.059Z,17.70
2022-10-26T15:16:10.210Z,17.60
2022-10-26T15:18:38.822Z,17.50
2022-10-26T15:21:23.584Z,17.40
2022-10-26T15:23:52.375Z,17.40
2022-10-26T15:26:20.434Z,17.30
2022-10-26T15:28:49.653Z,17.20
2022-10-26T15:31:17.075Z,17.20
2022-10-26T15:34:04.579Z,17.10
2022-10-26T15:36:35.597Z,17.10
2022-10-26T15:39:03.166Z,17.00
2022-10-26T15:41:37.775Z,16.90
2022-10-26T15:44:15.997Z,16.90
2022-10-26T15:46:43.769Z,16.80
2022-10-26T15:49:17.237Z,16.80
2022-10-26T15:51:46.779Z,16.70
2022-10-26T15:54:14.453Z,16.70
2022-10-26T15:56:43.800Z,16.60
2022-10-26T15:59:17.982Z,16.60
2022-10-26T16:01:45.824Z,16.50
2022-10-26T16:04:13.958Z,16.40
2022-10-26T16:06:42.155Z,16.40
2022-10-26T16:09:18.872Z,16.40
2022-10-26T16:11:46.628Z,15.20
2022-10-26T16:14:14.130Z,16.20
2022-10-26T16:16:41.546Z,16.20
2022-10-26T16:19:29.827Z,16.20
2022-10-26T16:21:58.884Z,16.10
2022-10-26T16:24:28.088Z,16.10
2022-10-26T16:26:56.708Z,16.00
2022-10-26T16:29:24.214Z,15.90
2022-10-26T16:31:51.622Z,15.90
2022-10-26T16:34:19.170Z,15.80
2022-10-26T16:36:46.644Z,15.70
2022-10-26T16:39:14.199Z,15.70
2022-10-26T16:41:41.621Z,15.60
2022-10-26T16:44:13.568Z,15.50
2022-10-26T16:46:41.012Z,15.40
2022-10-26T16:49:08.614Z,15.40
2022-10-26T16:51:36.101Z,15.40
2022-10-26T16:54:03.824Z,15.30
2022-10-26T16:56:31.371Z,15.20
2022-10-26T16:58:58.839Z,15.20
2022-10-26T17:01:26.602Z,15.20
2022-10-26T17:03:55.264Z,15.10
2022-10-26T17:06:22.943Z,15.00
2022-10-26T17:08:50.342Z,15.00
2022-10-26T17:11:20.381Z,14.90
2022-10-26T17:13:52.755Z,14.90
2022-10-26T17:16:22.608Z,14.80
2022-10-26T17:18:50.839Z,14.80
2022-10-26T17:21:20.904Z,14.70
2022-10-26T17:23:48.643Z,14.70
2022-10-26T17:26:18.332Z,14.70
2022-10-26T17:28:46.159Z,14.70
2022-10-26T17:31:15.220Z,14.70
2022-10-26T17:33:44.986Z,14.60
2022-10-26T17:36:13.851Z,14.60
2022-10-26T17:38:42.371Z,14.50
2022-10-26T17:41:14.525Z,14.50
2022-10-26T17:43:43.480Z,14.40
2022-10-26T17:46:16.380Z,14.40
2022-10-26T17:48:44.096Z,14.40
2022-10-26T17:51:14.485Z,14.30
2022-10-26T17:53:42.764Z,14.30
2022-10-26T17:56:11.499Z,14.30
2022-10-26T17:58:39.435Z,14.20
2022-10-26T18:01:09.870Z,14.20
2022-10-26T18:03:39.244Z,14.10
2022-10-26T18:06:07.682Z,14.10
2022-10-26T18:08:37.351Z,14.10
2022-10-26T18:11:06.503Z,14.10
2022-10-26T18:13:34.469Z,14.00
2022-10-26T18:16:11.659Z,14.00
2022-10-26T18:18:41.222Z,14.00
2022-10-26T18:21:11.515Z,14.00
2022-10-26T18:23:39.221Z,13.90
2022-10-26T18:26:17.998Z,13.90
2022-10-26T18:28:46.228Z,13.80
2022-10-26T18:31:19.665Z,13.80
2022-10-26T18:33:47.287Z,13.70
2022-10-26T18:36:18.979Z,13.70
2022-10-26T18:38:47.359Z,13.70
2022-10-26T18:41:16.685Z,13.70
2022-10-26T18:43:49.398Z,13.70
2022-10-26T18:46:20.727Z,13.60
2022-10-26T18:48:49.946Z,13.60
2022-10-26T18:51:18.313Z,13.60
2022-10-26T18:53:46.891Z,13.60
2022-10-26T18:56:24.935Z,13.60
2022-10-26T18:58:53.338Z,13.50
2022-10-26T19:01:23.520Z,13.50
2022-10-26T19:03:57.030Z,13.50
2022-10-26T19:06:30.490Z,13.40
2022-10-26T19:08:58.583Z,13.40
2022-10-26T19:11:28.099Z,13.40
2022-10-26T19:13:55.781Z,13.40
2022-10-26T19:19:14.267Z,13.40
2022-10-26T19:21:41.827Z,13.40
2022-10-26T19:24:20.361Z,13.40
2022-10-26T19:26:50.252Z,13.30
2022-10-26T19:29:19.185Z,13.30
2022-10-26T19:31:50.115Z,13.30
2022-10-26T19:34:18.290Z,13.30
2022-10-26T19:36:46.984Z,13.20
2022-10-26T19:39:16.617Z,13.20
2022-10-26T19:41:45.471Z,13.20
2022-10-26T19:44:14.527Z,13.20
2022-10-26T19:46:43.618Z,13.20
2022-10-26T19:49:13.117Z,13.20
2022-10-26T19:51:45.740Z,13.20
2022-10-26T19:54:13.278Z,13.20
2022-10-26T19:56:40.828Z,13.10
2022-10-26T19:59:10.484Z,13.10
2022-10-26T20:01:38.994Z,13.10
2022-10-26T20:04:06.931Z,13.10
2022-10-26T20:06:34.583Z,13.10
2022-10-26T20:09:02.816Z,13.10
2022-10-26T20:11:32.342Z,13.00
2022-10-26T20:14:05.041Z,13.00
2022-10-26T20:16:33.033Z,13.00
2022-10-26T20:19:01.579Z,13.00
2022-10-26T20:21:29.039Z,13.00
2022-10-26T20:23:57.647Z,13.00
2022-10-26T20:26:28.239Z,12.90
2022-10-26T20:28:56.255Z,11.90
2022-10-26T20:31:23.837Z,12.80
2022-10-26T20:33:55.008Z,12.80
2022-10-26T20:36:22.779Z,12.80
2022-10-26T20:38:50.655Z,12.80
2022-10-26T20:41:18.672Z,12.80
2022-10-26T20:43:46.370Z,12.80
2022-10-26T20:46:25.567Z,12.80
2022-10-26T20:48:53.944Z,12.80
2022-10-26T20:52:08.230Z,12.80
2022-10-26T20:54:51.965Z,12.80
2022-10-26T20:57:25.696Z,12.80
2022-10-26T21:00:13.539Z,12.80
2022-10-26T21:02:41.110Z,12.80
2022-10-26T21:05:08.825Z,12.80
2022-10-26T21:07:36.396Z,12.90
2022-10-26T21:10:04.341Z,13.00
2022-10-26T21:12:31.850Z,13.00
2022-10-26T21:14:59.375Z,13.00
2022-10-26T21:17:26.881Z,13.20
2022-10-26T21:19:56.772Z,13.20
2022-10-26T21:22:24.554Z,13.20
2022-10-26T21:24:52.181Z,13.20
2022-10-26T21:27:19.759Z,13.20
2022-10-26T21:29:49.830Z,13.20
2022-10-26T21:32:17.985Z,13.40
2022-10-26T21:34:45.452Z,13.30
2022-10-26T21:37:13.319Z,13.30
2022-10-26T21:39:40.880Z,13.80
2022-10-26T21:42:09.039Z,13.30
2022-10-26T21:44:41.368Z,13.50
2022-10-26T21:47:10.354Z,13.20
2022-10-26T21:49:37.983Z,13.70
2022-10-26T21:52:06.761Z,13.20
2022-10-26T21:54:34.516Z,13.30
2022-10-26T21:57:02.290Z,13.30
2022-10-26T21:59:29.973Z,13.30
2022-10-26T22:01:57.629Z,13.30
2022-10-26T22:04:25.341Z,13.30
2022-10-26T22:06:52.880Z,13.30
2022-10-26T22:09:20.456Z,13.40
2022-10-26T22:11:48.044Z,13.40
2022-10-26T22:14:15.852Z,13.50
2022-10-26T22:16:43.526Z,13.70
2022-10-26T22:19:11.085Z,13.70
2022-10-26T22:21:41.125Z,13.90
2022-10-26T22:24:09.128Z,13.90
2022-10-26T22:26:37.282Z,13.90
2022-10-26T22:29:05.055Z,13.90
2022-10-26T22:31:34.927Z,14.00
2022-10-26T22:34:07.638Z,13.90
2022-10-26T22:36:36.093Z,13.80
2022-10-26T22:39:04.387Z,13.80
2022-10-26T22:41:31.921Z,13.80
2022-10-26T22:43:59.420Z,13.80
2022-10-26T22:46:28.295Z,13.80
2022-10-26T22:49:02.099Z,13.80
2022-10-26T22:51:32.563Z,13.70
2022-10-26T22:54:01.959Z,13.80
2022-10-26T22:56:31.349Z,13.80
2022-10-26T22:58:59.471Z,13.70
2022-10-26T23:01:31.316Z,13.80
2022-10-26T23:03:59.859Z,13.70
2022-10-26T23:06:28.413Z,13.70
2022-10-26T23:08:55.948Z,13.70
2022-10-26T23:11:25.077Z,13.60
2022-10-26T23:13:56.316Z,13.60
2022-10-26T23:16:23.950Z,13.60
2022-10-26T23:18:53.466Z,13.60
2022-10-26T23:21:23.038Z,13.60
2022-10-26T23:23:50.665Z,13.60
2022-10-26T23:26:21.061Z,13.70
2022-10-26T23:28:49.397Z,13.50
2022-10-26T23:31:19.490Z,13.60
2022-10-26T23:33:47.192Z,13.50
2022-10-26T23:36:14.673Z,13.50
2022-10-26T23:38:42.292Z,13.40
2022-10-26T23:41:12.804Z,13.40
2022-10-26T23:43:41.098Z,13.40
2022-10-26T23:46:09.209Z,13.40
2022-10-26T23:48:36.933Z,13.30
2022-10-26T23:51:04.497Z,13.30
2022-10-26T23:53:31.927Z,13.30
2022-10-26T23:55:59.350Z,13.30
2022-10-26T23:58:26.814Z,13.30
